TJSJ/SJU METAR and TAF weather

Enter ICAO airport designator
Station Type Date Time Source
TJSJ METAR 2021/07/30 06:56 UTC NOAA

TJSJ 300656Z 09005KT 10SM FEW023 27/24 A3003 RMK AO2 SLP168 T02670244


Station Type Date Time Source
TJSJ Decoded METAR 2021/07/30 06:56 UTC NOAA

San Juan, Luis Munoz Marin International Airport, PR, United States (TJSJ) 18-27N 066-00W
Jul 30, 2021 - 02:56 AM EDT / 2021.07.30 0656 UTC
Wind: from the E (090 degrees) at 6 MPH (5 KT):0
Visibility: 10 mile(s):0
Sky conditions: mostly clear
Temperature: 80.1 F (26.7 C)
Dew Point: 75.9 F (24.4 C)
Relative Humidity: 87%
Pressure (altimeter): 30.03 in. Hg (1016 hPa)
ob: TJSJ 300656Z 09005KT 10SM FEW023 27/24 A3003 RMK AO2 SLP168 T02670244
cycle: 7

Station Type Date Time Source
TJSJ TAF 2021/07/30 06:48 UTC NOAA

TAF TJSJ 300540Z 3006/3106 09007KT P6SM FEW020 SCT040
FM301400 07014G24KT P6SM FEW030 SCT050
FM302200 09010KT P6SM FEW035 SCT050

Example: see airport list